sensor_id;sensor_type;location;lat;lon;timestamp;pressure;altitude;pressure_sealevel;temperature;humidity
61318;BME280;47201;40.428;-8.436;2023-02-14T00:00:17;101670.38;;;12.33;74.59
61318;BME280;47201;40.428;-8.436;2023-02-14T00:02:18;101671.34;;;12.46;73.95
61318;BME280;47201;40.428;-8.436;2023-02-14T00:04:18;101662.69;;;12.60;73.07
61318;BME280;47201;40.428;-8.436;2023-02-14T00:06:19;101667.16;;;12.73;72.48
61318;BME280;47201;40.428;-8.436;2023-02-14T00:08:19;101663.66;;;12.79;71.79
61318;BME280;47201;40.428;-8.436;2023-02-14T00:10:20;101657.59;;;12.97;71.06
61318;BME280;47201;40.428;-8.436;2023-02-14T00:12:20;101658.50;;;12.99;71.05
61318;BME280;47201;40.428;-8.436;2023-02-14T00:14:21;101661.09;;;12.94;71.24
61318;BME280;47201;40.428;-8.436;2023-02-14T00:16:40;101656.72;;;12.90;71.62
61318;BME280;47201;40.428;-8.436;2023-02-14T00:18:59;101659.31;;;12.84;72.09
61318;BME280;47201;40.428;-8.436;2023-02-14T00:21:02;101662.81;;;12.84;72.37
61318;BME280;47201;40.428;-8.436;2023-02-14T00:23:03;101653.16;;;12.79;72.55
61318;BME280;47201;40.428;-8.436;2023-02-14T00:25:04;101660.19;;;12.84;73.04
61318;BME280;47201;40.428;-8.436;2023-02-14T00:27:04;101647.94;;;12.80;72.61
61318;BME280;47201;40.428;-8.436;2023-02-14T00:29:05;101649.66;;;12.78;72.64
61318;BME280;47201;40.428;-8.436;2023-02-14T00:31:06;101639.16;;;12.81;73.19
61318;BME280;47201;40.428;-8.436;2023-02-14T00:33:07;101638.28;;;12.78;73.11
61318;BME280;47201;40.428;-8.436;2023-02-14T00:35:09;101633.91;;;12.72;73.65
61318;BME280;47201;40.428;-8.436;2023-02-14T00:37:10;101626.91;;;12.71;73.66
61318;BME280;47201;40.428;-8.436;2023-02-14T00:39:11;101626.06;;;12.77;73.38
61318;BME280;47201;40.428;-8.436;2023-02-14T00:41:31;101629.56;;;12.82;73.22
61318;BME280;47201;40.428;-8.436;2023-02-14T00:43:32;101627.81;;;12.79;73.23
61318;BME280;47201;40.428;-8.436;2023-02-14T00:45:32;101630.41;;;12.76;73.62
61318;BME280;47201;40.428;-8.436;2023-02-14T00:47:33;101634.72;;;12.62;74.51
61318;BME280;47201;40.428;-8.436;2023-02-14T00:49:33;101621.53;;;12.46;75.33
61318;BME280;47201;40.428;-8.436;2023-02-14T00:51:34;101619.72;;;12.31;76.26
61318;BME280;47201;40.428;-8.436;2023-02-14T00:53:55;101617.91;;;12.26;76.29
61318;BME280;47201;40.428;-8.436;2023-02-14T00:55:56;101615.28;;;12.27;76.09
61318;BME280;47201;40.428;-8.436;2023-02-14T00:58:16;101621.38;;;12.17;77.04
61318;BME280;47201;40.428;-8.436;2023-02-14T01:00:36;101621.44;;;12.32;75.34
61318;BME280;47201;40.428;-8.436;2023-02-14T01:02:56;101617.13;;;12.39;75.61
61318;BME280;47201;40.428;-8.436;2023-02-14T01:04:58;101622.38;;;12.42;74.83
61318;BME280;47201;40.428;-8.436;2023-02-14T01:06:59;101619.78;;;12.42;74.85
61318;BME280;47201;40.428;-8.436;2023-02-14T01:09:19;101623.22;;;12.35;75.21
61318;BME280;47201;40.428;-8.436;2023-02-14T01:11:21;101610.97;;;12.37;75.03
61318;BME280;47201;40.428;-8.436;2023-02-14T01:13:23;101620.63;;;12.40;74.65
61318;BME280;47201;40.428;-8.436;2023-02-14T01:15:23;101614.50;;;12.36;74.51
61318;BME280;47201;40.428;-8.436;2023-02-14T01:17:25;101623.25;;;12.40;74.81
61318;BME280;47201;40.428;-8.436;2023-02-14T01:19:42;101621.53;;;12.52;73.66
61318;BME280;47201;40.428;-8.436;2023-02-14T01:21:42;101611.16;;;12.74;72.59
61318;BME280;47201;40.428;-8.436;2023-02-14T01:23:43;101612.94;;;12.84;72.48
61318;BME280;47201;40.428;-8.436;2023-02-14T01:25:44;101607.69;;;12.78;72.62
61318;BME280;47201;40.428;-8.436;2023-02-14T01:27:45;101611.16;;;12.69;72.96
61318;BME280;47201;40.428;-8.436;2023-02-14T01:30:04;101607.66;;;12.67;73.22
61318;BME280;47201;40.428;-8.436;2023-02-14T01:32:05;101600.59;;;12.56;73.59
61318;BME280;47201;40.428;-8.436;2023-02-14T01:34:05;101597.97;;;12.57;74.22
61318;BME280;47201;40.428;-8.436;2023-02-14T01:36:10;101600.63;;;12.68;72.88
61318;BME280;47201;40.428;-8.436;2023-02-14T01:38:14;101601.50;;;12.65;73.41
61318;BME280;47201;40.428;-8.436;2023-02-14T01:40:15;101611.13;;;12.65;73.63
61318;BME280;47201;40.428;-8.436;2023-02-14T01:42:16;101598.88;;;12.64;73.45
61318;BME280;47201;40.428;-8.436;2023-02-14T01:46:36;101593.63;;;12.65;73.04
61318;BME280;47201;40.428;-8.436;2023-02-14T01:48:38;101598.03;;;12.65;73.68
61318;BME280;47201;40.428;-8.436;2023-02-14T01:50:40;101597.13;;;12.64;73.63
61318;BME280;47201;40.428;-8.436;2023-02-14T01:52:43;101597.13;;;12.66;73.17
61318;BME280;47201;40.428;-8.436;2023-02-14T01:54:57;101595.34;;;12.57;74.19
61318;BME280;47201;40.428;-8.436;2023-02-14T01:57:19;101597.91;;;12.45;74.55
61318;BME280;47201;40.428;-8.436;2023-02-14T01:59:21;101593.59;;;12.53;74.36
61318;BME280;47201;40.428;-8.436;2023-02-14T02:01:23;101589.25;;;12.57;73.74
61318;BME280;47201;40.428;-8.436;2023-02-14T02:05:28;101593.63;;;12.65;73.31
61318;BME280;47201;40.428;-8.436;2023-02-14T02:07:28;101596.25;;;12.67;73.38
61318;BME280;47201;40.428;-8.436;2023-02-14T02:12:08;101599.75;;;12.64;73.59
61318;BME280;47201;40.428;-8.436;2023-02-14T02:14:15;101600.66;;;12.73;73.30
61318;BME280;47201;40.428;-8.436;2023-02-14T02:36:31;101591.09;;;12.92;72.28
61318;BME280;47201;40.428;-8.436;2023-02-14T02:38:33;101585.84;;;12.89;72.43
61318;BME280;47201;40.428;-8.436;2023-02-14T02:49:43;101571.78;;;12.74;73.25
61318;BME280;47201;40.428;-8.436;2023-02-14T02:54:57;101570.03;;;12.65;74.14
61318;BME280;47201;40.428;-8.436;2023-02-14T02:57:00;101556.03;;;12.60;74.29
61318;BME280;47201;40.428;-8.436;2023-02-14T03:05:49;101552.44;;;12.43;74.99
61318;BME280;47201;40.428;-8.436;2023-02-14T03:07:51;101536.72;;;12.43;75.08
61318;BME280;47201;40.428;-8.436;2023-02-14T03:09:54;101540.22;;;12.45;74.95
61318;BME280;47201;40.428;-8.436;2023-02-14T03:11:59;101539.38;;;12.47;74.68
61318;BME280;47201;40.428;-8.436;2023-02-14T03:16:31;101528.00;;;12.47;74.16
61318;BME280;47201;40.428;-8.436;2023-02-14T03:29:04;101510.50;;;12.40;74.29
61318;BME280;47201;40.428;-8.436;2023-02-14T03:35:57;101501.78;;;12.50;73.65
61318;BME280;47201;40.428;-8.436;2023-02-14T03:38:14;101512.25;;;12.51;73.53
61318;BME280;47201;40.428;-8.436;2023-02-14T03:40:24;101492.16;;;12.53;73.60
61318;BME280;47201;40.428;-8.436;2023-02-14T03:42:31;101485.19;;;12.56;73.59
61318;BME280;47201;40.428;-8.436;2023-02-14T03:44:53;101493.03;;;12.52;73.71
61318;BME280;47201;40.428;-8.436;2023-02-14T03:47:05;101485.16;;;12.45;74.00
61318;BME280;47201;40.428;-8.436;2023-02-14T03:49:11;101487.81;;;12.49;73.78
61318;BME280;47201;40.428;-8.436;2023-02-14T03:51:15;101486.06;;;12.48;73.60
61318;BME280;47201;40.428;-8.436;2023-02-14T03:53:20;101478.19;;;12.48;73.72
61318;BME280;47201;40.428;-8.436;2023-02-14T03:55:26;101481.69;;;12.50;73.35
61318;BME280;47201;40.428;-8.436;2023-02-14T03:57:35;101484.31;;;12.50;73.01
61318;BME280;47201;40.428;-8.436;2023-02-14T03:59:37;101481.66;;;12.47;73.20
61318;BME280;47201;40.428;-8.436;2023-02-14T04:01:49;101483.41;;;12.51;72.74
61318;BME280;47201;40.428;-8.436;2023-02-14T04:03:54;101493.91;;;12.50;72.82
61318;BME280;47201;40.428;-8.436;2023-02-14T04:05:57;101476.44;;;12.50;72.86
61318;BME280;47201;40.428;-8.436;2023-02-14T04:07:57;101485.19;;;12.49;72.73
61318;BME280;47201;40.428;-8.436;2023-02-14T04:09:58;101480.81;;;12.47;72.58
61318;BME280;47201;40.428;-8.436;2023-02-14T04:11:58;101490.41;;;12.46;72.59
61318;BME280;47201;40.428;-8.436;2023-02-14T04:14:01;101485.13;;;12.42;73.00
61318;BME280;47201;40.428;-8.436;2023-02-14T04:16:01;101493.91;;;12.44;72.37
61318;BME280;47201;40.428;-8.436;2023-02-14T04:18:02;101483.41;;;12.37;72.94
61318;BME280;47201;40.428;-8.436;2023-02-14T04:20:21;101486.03;;;12.36;73.03
61318;BME280;47201;40.428;-8.436;2023-02-14T04:22:40;101474.63;;;12.31;73.30
61318;BME280;47201;40.428;-8.436;2023-02-14T04:24:41;101486.84;;;12.29;73.33
61318;BME280;47201;40.428;-8.436;2023-02-14T04:26:42;101480.72;;;12.28;73.30
61318;BME280;47201;40.428;-8.436;2023-02-14T04:28:53;101472.84;;;12.24;73.05
61318;BME280;47201;40.428;-8.436;2023-02-14T04:31:13;101472.84;;;12.24;73.40
61318;BME280;47201;40.428;-8.436;2023-02-14T04:33:19;101482.47;;;12.23;73.20
61318;BME280;47201;40.428;-8.436;2023-02-14T04:35:20;101485.97;;;12.28;73.19
61318;BME280;47201;40.428;-8.436;2023-02-14T04:37:22;101478.09;;;12.25;72.86
61318;BME280;47201;40.428;-8.436;2023-02-14T04:39:23;101479.88;;;12.29;72.63
61318;BME280;47201;40.428;-8.436;2023-02-14T04:41:24;101479.88;;;12.31;72.68
61318;BME280;47201;40.428;-8.436;2023-02-14T04:43:24;101490.34;;;12.31;72.50
61318;BME280;47201;40.428;-8.436;2023-02-14T04:45:25;101484.25;;;12.30;72.41
61318;BME280;47201;40.428;-8.436;2023-02-14T04:47:26;101488.56;;;12.24;72.93
61318;BME280;47201;40.428;-8.436;2023-02-14T04:49:26;101485.97;;;12.27;72.43
61318;BME280;47201;40.428;-8.436;2023-02-14T04:51:27;101482.47;;;12.26;72.69
61318;BME280;47201;40.428;-8.436;2023-02-14T04:53:28;101474.63;;;12.29;72.13
61318;BME280;47201;40.428;-8.436;2023-02-14T04:55:28;101471.16;;;12.38;71.71
61318;BME280;47201;40.428;-8.436;2023-02-14T04:57:48;101476.38;;;12.33;71.64
61318;BME280;47201;40.428;-8.436;2023-02-14T04:59:48;101470.28;;;12.36;71.37
61318;BME280;47201;40.428;-8.436;2023-02-14T05:01:49;101471.16;;;12.41;71.07
61318;BME280;47201;40.428;-8.436;2023-02-14T05:03:49;101478.16;;;12.41;71.13
61318;BME280;47201;40.428;-8.436;2023-02-14T05:05:50;101473.81;;;12.47;70.47
61318;BME280;47201;40.428;-8.436;2023-02-14T05:08:09;101478.16;;;12.42;70.71
61318;BME280;47201;40.428;-8.436;2023-02-14T05:10:28;101475.53;;;12.37;70.92
61318;BME280;47201;40.428;-8.436;2023-02-14T05:12:47;101474.63;;;12.37;71.03
61318;BME280;47201;40.428;-8.436;2023-02-14T05:14:47;101476.41;;;12.35;71.22
61318;BME280;47201;40.428;-8.436;2023-02-14T05:16:48;101467.66;;;12.33;71.49
61318;BME280;47201;40.428;-8.436;2023-02-14T05:18:48;101465.88;;;12.27;71.21
61318;BME280;47201;40.428;-8.436;2023-02-14T05:21:07;101464.13;;;12.28;71.29
61318;BME280;47201;40.428;-8.436;2023-02-14T05:23:08;101465.88;;;12.27;71.26
61318;BME280;47201;40.428;-8.436;2023-02-14T05:25:12;101466.72;;;12.21;71.93
61318;BME280;47201;40.428;-8.436;2023-02-14T05:27:13;101470.19;;;12.11;71.94
61318;BME280;47201;40.428;-8.436;2023-02-14T05:29:13;101465.81;;;12.12;71.63
61318;BME280;47201;40.428;-8.436;2023-02-14T05:31:33;101464.94;;;12.10;71.91
61318;BME280;47201;40.428;-8.436;2023-02-14T05:33:34;101457.03;;;12.03;71.96
61318;BME280;47201;40.428;-8.436;2023-02-14T05:35:35;101457.91;;;11.98;72.35
61318;BME280;47201;40.428;-8.436;2023-02-14T05:37:35;101448.22;;;11.94;72.11
61318;BME280;47201;40.428;-8.436;2023-02-14T05:39:36;101446.50;;;11.96;71.79
61318;BME280;47201;40.428;-8.436;2023-02-14T05:41:36;101450.84;;;11.90;72.36
61318;BME280;47201;40.428;-8.436;2023-02-14T05:43:37;101450.84;;;11.92;72.17
61318;BME280;47201;40.428;-8.436;2023-02-14T05:45:57;101448.22;;;11.90;71.81
61318;BME280;47201;40.428;-8.436;2023-02-14T05:47:59;101452.59;;;11.96;71.08
61318;BME280;47201;40.428;-8.436;2023-02-14T05:50:00;101453.56;;;12.03;70.60
61318;BME280;47201;40.428;-8.436;2023-02-14T05:52:01;101448.28;;;12.00;70.49
61318;BME280;47201;40.428;-8.436;2023-02-14T05:54:22;101456.16;;;11.97;70.56
61318;BME280;47201;40.428;-8.436;2023-02-14T05:56:40;101455.31;;;12.02;69.83
61318;BME280;47201;40.428;-8.436;2023-02-14T05:58:42;101450.91;;;12.00;70.01
61318;BME280;47201;40.428;-8.436;2023-02-14T06:00:43;101458.72;;;11.94;70.06
61318;BME280;47201;40.428;-8.436;2023-02-14T06:02:43;101456.09;;;11.92;70.19
61318;BME280;47201;40.428;-8.436;2023-02-14T06:04:44;101445.69;;;12.01;69.22
61318;BME280;47201;40.428;-8.436;2023-02-14T06:06:44;101454.47;;;12.10;68.69
61318;BME280;47201;40.428;-8.436;2023-02-14T06:08:45;101451.84;;;12.11;68.85
61318;BME280;47201;40.428;-8.436;2023-02-14T06:10:45;101449.19;;;12.06;68.85
61318;BME280;47201;40.428;-8.436;2023-02-14T06:12:48;101450.94;;;12.01;68.68
61318;BME280;47201;40.428;-8.436;2023-02-14T06:14:48;101446.50;;;11.94;69.01
61318;BME280;47201;40.428;-8.436;2023-02-14T06:16:49;101465.69;;;11.87;69.56
61318;BME280;47201;40.428;-8.436;2023-02-14T06:18:49;101450.81;;;11.86;69.29
61318;BME280;47201;40.428;-8.436;2023-02-14T06:20:51;101455.19;;;11.87;69.35
61318;BME280;47201;40.428;-8.436;2023-02-14T06:22:54;101460.44;;;11.88;69.28
61318;BME280;47201;40.428;-8.436;2023-02-14T06:24:55;101456.94;;;11.86;69.08
61318;BME280;47201;40.428;-8.436;2023-02-14T06:26:58;101461.28;;;11.81;69.03
61318;BME280;47201;40.428;-8.436;2023-02-14T06:28:58;101449.94;;;11.85;68.95
61318;BME280;47201;40.428;-8.436;2023-02-14T06:30:58;101458.66;;;11.81;68.67
61318;BME280;47201;40.428;-8.436;2023-02-14T06:33:18;101456.03;;;11.84;68.91
61318;BME280;47201;40.428;-8.436;2023-02-14T06:35:38;101449.94;;;11.85;68.61
61318;BME280;47201;40.428;-8.436;2023-02-14T06:37:59;101446.44;;;11.83;68.64
61318;BME280;47201;40.428;-8.436;2023-02-14T06:40:19;101451.66;;;11.80;68.80
61318;BME280;47201;40.428;-8.436;2023-02-14T06:42:20;101452.53;;;11.76;68.62
61318;BME280;47201;40.428;-8.436;2023-02-14T06:44:40;101453.41;;;11.81;68.19
61318;BME280;47201;40.428;-8.436;2023-02-14T06:47:00;101470.84;;;11.73;68.50
61318;BME280;47201;40.428;-8.436;2023-02-14T06:49:01;101455.13;;;11.73;68.26
61318;BME280;47201;40.428;-8.436;2023-02-14T06:51:02;101469.03;;;11.67;68.57
61318;BME280;47201;40.428;-8.436;2023-02-14T06:53:03;101461.16;;;11.63;68.69
61318;BME280;47201;40.428;-8.436;2023-02-14T06:55:05;101460.28;;;11.62;68.82
61318;BME280;47201;40.428;-8.436;2023-02-14T06:57:06;101479.47;;;11.59;68.79
61318;BME280;47201;40.428;-8.436;2023-02-14T06:59:07;101472.50;;;11.58;68.68
61318;BME280;47201;40.428;-8.436;2023-02-14T07:01:08;101477.69;;;11.52;68.79
61318;BME280;47201;40.428;-8.436;2023-02-14T07:03:10;101479.38;;;11.47;69.35
61318;BME280;47201;40.428;-8.436;2023-02-14T07:05:11;101484.56;;;11.41;69.12
61318;BME280;47201;40.428;-8.436;2023-02-14T07:07:12;101480.19;;;11.37;69.36
61318;BME280;47201;40.428;-8.436;2023-02-14T07:09:13;101469.72;;;11.35;69.08
61318;BME280;47201;40.428;-8.436;2023-02-14T07:11:17;101473.16;;;11.33;69.25
61318;BME280;47201;40.428;-8.436;2023-02-14T07:13:18;101477.50;;;11.26;69.45
61318;BME280;47201;40.428;-8.436;2023-02-14T07:15:19;101482.66;;;11.18;69.44
61318;BME280;47201;40.428;-8.436;2023-02-14T07:17:20;101467.00;;;11.24;69.27
61318;BME280;47201;40.428;-8.436;2023-02-14T07:19:20;101475.69;;;11.20;69.31
61318;BME280;47201;40.428;-8.436;2023-02-14T07:21:21;101470.41;;;11.14;69.40
61318;BME280;47201;40.428;-8.436;2023-02-14T07:23:21;101468.63;;;11.10;69.30
61318;BME280;47201;40.428;-8.436;2023-02-14T07:25:22;101465.19;;;11.16;69.15
61318;BME280;47201;40.428;-8.436;2023-02-14T07:27:22;101483.41;;;11.05;69.62
61318;BME280;47201;40.428;-8.436;2023-02-14T07:29:43;101482.50;;;11.03;69.47
61318;BME280;47201;40.428;-8.436;2023-02-14T07:31:44;101493.75;;;10.91;70.20
61318;BME280;47201;40.428;-8.436;2023-02-14T07:33:45;101484.91;;;10.79;70.88
61318;BME280;47201;40.428;-8.436;2023-02-14T07:36:05;101490.06;;;10.70;71.17
61318;BME280;47201;40.428;-8.436;2023-02-14T07:38:24;101490.91;;;10.68;70.79
61318;BME280;47201;40.428;-8.436;2023-02-14T07:40:43;101492.72;;;10.75;70.78
61318;BME280;47201;40.428;-8.436;2023-02-14T07:43:02;101497.88;;;10.67;70.94
61318;BME280;47201;40.428;-8.436;2023-02-14T07:45:21;101499.59;;;10.67;70.81
61318;BME280;47201;40.428;-8.436;2023-02-14T07:47:22;101497.88;;;10.67;71.04
61318;BME280;47201;40.428;-8.436;2023-02-14T07:49:24;101497.03;;;10.70;70.87
61318;BME280;47201;40.428;-8.436;2023-02-14T07:51:24;101501.41;;;10.71;70.54
61318;BME280;47201;40.428;-8.436;2023-02-14T07:53:25;101494.47;;;10.74;70.50
61318;BME280;47201;40.428;-8.436;2023-02-14T07:55:47;101511.13;;;10.84;70.33
61318;BME280;47201;40.428;-8.436;2023-02-14T07:58:06;101505.94;;;10.90;69.83
61318;BME280;47201;40.428;-8.436;2023-02-14T08:00:07;101499.91;;;10.98;69.44
61318;BME280;47201;40.428;-8.436;2023-02-14T08:02:26;101506.16;;;11.12;68.75
61318;BME280;47201;40.428;-8.436;2023-02-14T08:04:45;101508.81;;;11.15;68.52
61318;BME280;47201;40.428;-8.436;2023-02-14T08:07:04;101516.72;;;11.20;68.63
61318;BME280;47201;40.428;-8.436;2023-02-14T08:09:05;101509.81;;;11.33;68.20
61318;BME280;47201;40.428;-8.436;2023-02-14T08:11:05;101498.63;;;11.52;66.99
61318;BME280;47201;40.428;-8.436;2023-02-14T08:13:06;101503.06;;;11.63;66.44
61318;BME280;47201;40.428;-8.436;2023-02-14T08:15:07;101496.94;;;11.64;66.69
61318;BME280;47201;40.428;-8.436;2023-02-14T08:17:45;101499.56;;;11.62;66.91
61318;BME280;47201;40.428;-8.436;2023-02-14T08:19:45;101501.38;;;11.71;66.26
61318;BME280;47201;40.428;-8.436;2023-02-14T08:21:46;101503.16;;;11.77;66.57
61318;BME280;47201;40.428;-8.436;2023-02-14T08:23:46;101508.56;;;11.98;65.99
61318;BME280;47201;40.428;-8.436;2023-02-14T08:25:47;101501.81;;;12.54;64.15
61318;BME280;47201;40.428;-8.436;2023-02-14T08:27:48;101510.66;;;13.67;59.79
61318;BME280;47201;40.428;-8.436;2023-02-14T08:30:07;101497.72;;;15.13;53.81
61318;BME280;47201;40.428;-8.436;2023-02-14T08:32:08;101498.41;;;16.27;50.92
61318;BME280;47201;40.428;-8.436;2023-02-14T08:34:09;101499.34;;;16.85;48.87
61318;BME280;47201;40.428;-8.436;2023-02-14T08:36:09;101505.59;;;16.78;49.18
61318;BME280;47201;40.428;-8.436;2023-02-14T08:38:10;101503.88;;;16.08;51.24
61318;BME280;47201;40.428;-8.436;2023-02-14T08:40:12;101502.59;;;15.61;53.30
61318;BME280;47201;40.428;-8.436;2023-02-14T08:42:14;101498.38;;;15.43;54.53
61318;BME280;47201;40.428;-8.436;2023-02-14T08:44:17;101497.63;;;15.27;55.54
61318;BME280;47201;40.428;-8.436;2023-02-14T08:46:19;101499.94;;;15.62;54.64
61318;BME280;47201;40.428;-8.436;2023-02-14T08:48:20;101502.75;;;16.28;53.78
61318;BME280;47201;40.428;-8.436;2023-02-14T08:50:22;101506.53;;;16.75;51.99
61318;BME280;47201;40.428;-8.436;2023-02-14T08:52:24;101494.84;;;16.93;52.14
61318;BME280;47201;40.428;-8.436;2023-02-14T08:54:25;101494.97;;;16.18;54.62
61318;BME280;47201;40.428;-8.436;2023-02-14T08:56:26;101501.97;;;15.32;58.88
61318;BME280;47201;40.428;-8.436;2023-02-14T08:58:45;101497.41;;;15.50;59.35
61318;BME280;47201;40.428;-8.436;2023-02-14T09:00:46;101499.00;;;17.10;54.25
61318;BME280;47201;40.428;-8.436;2023-02-14T09:03:06;101501.38;;;18.63;49.89
61318;BME280;47201;40.428;-8.436;2023-02-14T09:05:10;101489.81;;;19.74;47.67
61318;BME280;47201;40.428;-8.436;2023-02-14T09:07:13;101491.13;;;20.52;46.30
61318;BME280;47201;40.428;-8.436;2023-02-14T09:09:15;101492.72;;;20.88;46.66
61318;BME280;47201;40.428;-8.436;2023-02-14T09:11:21;101497.25;;;21.11;46.36
61318;BME280;47201;40.428;-8.436;2023-02-14T09:13:24;101507.66;;;21.19;48.24
61318;BME280;47201;40.428;-8.436;2023-02-14T09:15:30;101513.19;;;21.13;49.38
61318;BME280;47201;40.428;-8.436;2023-02-14T09:17:32;101522.78;;;21.44;50.18
61318;BME280;47201;40.428;-8.436;2023-02-14T09:19:35;101513.50;;;21.82;50.11
61318;BME280;47201;40.428;-8.436;2023-02-14T09:21:37;101518.81;;;22.77;49.21
61318;BME280;47201;40.428;-8.436;2023-02-14T09:23:41;101531.59;;;23.36;48.51
61318;BME280;47201;40.428;-8.436;2023-02-14T09:25:46;101532.84;;;24.49;46.48
61318;BME280;47201;40.428;-8.436;2023-02-14T09:27:51;101533.34;;;25.13;46.19
61318;BME280;47201;40.428;-8.436;2023-02-14T09:29:59;101532.25;;;25.35;46.79
61318;BME280;47201;40.428;-8.436;2023-02-14T09:32:01;101546.38;;;25.39;48.84
61318;BME280;47201;40.428;-8.436;2023-02-14T09:34:03;101529.94;;;24.73;52.13
61318;BME280;47201;40.428;-8.436;2023-02-14T09:36:08;101528.94;;;24.76;53.07
61318;BME280;47201;40.428;-8.436;2023-02-14T09:38:19;101529.88;;;24.75;54.85
61318;BME280;47201;40.428;-8.436;2023-02-14T09:40:22;101535.88;;;25.16;55.16
61318;BME280;47201;40.428;-8.436;2023-02-14T09:42:35;101537.50;;;25.89;54.40
61318;BME280;47201;40.428;-8.436;2023-02-14T09:45:07;101532.22;;;26.05;54.89
61318;BME280;47201;40.428;-8.436;2023-02-14T09:47:18;101530.56;;;25.52;56.93
61318;BME280;47201;40.428;-8.436;2023-02-14T09:49:27;101521.75;;;24.95;58.96
61318;BME280;47201;40.428;-8.436;2023-02-14T09:51:30;101520.22;;;24.72;60.78
61318;BME280;47201;40.428;-8.436;2023-02-14T09:53:55;101535.22;;;24.55;61.40
61318;BME280;47201;40.428;-8.436;2023-02-14T10:01:28;101529.56;;;24.23;63.95
61318;BME280;47201;40.428;-8.436;2023-02-14T10:03:58;101527.41;;;24.51;63.84
61318;BME280;47201;40.428;-8.436;2023-02-14T10:08:45;101506.97;;;24.50;64.63
61318;BME280;47201;40.428;-8.436;2023-02-14T10:11:10;101504.16;;;24.15;65.32
61318;BME280;47201;40.428;-8.436;2023-02-14T10:13:15;101503.69;;;24.24;65.67
61318;BME280;47201;40.428;-8.436;2023-02-14T10:15:19;101501.53;;;24.51;65.95
61318;BME280;47201;40.428;-8.436;2023-02-14T10:17:39;101500.69;;;24.70;65.22
61318;BME280;47201;40.428;-8.436;2023-02-14T10:19:53;101499.53;;;24.76;65.24
61318;BME280;47201;40.428;-8.436;2023-02-14T10:21:57;101509.03;;;24.81;65.89
61318;BME280;47201;40.428;-8.436;2023-02-14T10:24:32;101506.19;;;25.21;65.03
61318;BME280;47201;40.428;-8.436;2023-02-14T10:26:54;101498.31;;;25.00;65.28
61318;BME280;47201;40.428;-8.436;2023-02-14T10:28:57;101501.69;;;25.41;64.63
61318;BME280;47201;40.428;-8.436;2023-02-14T10:31:17;101498.47;;;25.15;65.27
61318;BME280;47201;40.428;-8.436;2023-02-14T10:33:19;101498.00;;;25.07;65.68
61318;BME280;47201;40.428;-8.436;2023-02-14T10:42:04;101509.63;;;25.60;66.39
61318;BME280;47201;40.428;-8.436;2023-02-14T10:46:38;101494.31;;;26.29;64.91
61318;BME280;47201;40.428;-8.436;2023-02-14T10:49:04;101498.56;;;26.33;65.15
61318;BME280;47201;40.428;-8.436;2023-02-14T10:57:39;101490.28;;;24.26;69.65
61318;BME280;47201;40.428;-8.436;2023-02-14T10:59:45;101485.06;;;24.42;69.89
61318;BME280;47201;40.428;-8.436;2023-02-14T11:01:49;101467.47;;;24.57;69.39
61318;BME280;47201;40.428;-8.436;2023-02-14T11:04:10;101487.72;;;24.61;69.42
61318;BME280;47201;40.428;-8.436;2023-02-14T11:06:33;101483.09;;;24.83;69.23
61318;BME280;47201;40.428;-8.436;2023-02-14T11:08:38;101483.00;;;24.48;69.42
61318;BME280;47201;40.428;-8.436;2023-02-14T11:10:39;101477.13;;;24.02;70.52
61318;BME280;47201;40.428;-8.436;2023-02-14T11:12:40;101455.75;;;24.02;70.96
61318;BME280;47201;40.428;-8.436;2023-02-14T11:14:40;101461.91;;;23.83;71.24
61318;BME280;47201;40.428;-8.436;2023-02-14T11:16:42;101467.59;;;24.15;70.57
61318;BME280;47201;40.428;-8.436;2023-02-14T11:18:43;101465.63;;;24.57;70.26
61318;BME280;47201;40.428;-8.436;2023-02-14T11:20:44;101466.84;;;24.88;69.44
61318;BME280;47201;40.428;-8.436;2023-02-14T11:22:58;101462.91;;;24.95;69.74
61318;BME280;47201;40.428;-8.436;2023-02-14T11:25:05;101455.13;;;24.91;69.41
61318;BME280;47201;40.428;-8.436;2023-02-14T11:27:13;101452.59;;;25.05;69.71
61318;BME280;47201;40.428;-8.436;2023-02-14T11:29:19;101444.97;;;25.32;69.27
61318;BME280;47201;40.428;-8.436;2023-02-14T11:31:24;101440.03;;;25.42;68.83
61318;BME280;47201;40.428;-8.436;2023-02-14T11:35:29;101429.22;;;25.61;68.50
61318;BME280;47201;40.428;-8.436;2023-02-14T11:39:37;101428.75;;;26.03;68.59
61318;BME280;47201;40.428;-8.436;2023-02-14T11:41:45;101410.59;;;25.76;68.53
61318;BME280;47201;40.428;-8.436;2023-02-14T11:43:46;101403.09;;;25.14;69.65
61318;BME280;47201;40.428;-8.436;2023-02-14T11:45:48;101418.03;;;25.35;69.61
61318;BME280;47201;40.428;-8.436;2023-02-14T11:48:45;101411.13;;;25.98;68.60
61318;BME280;47201;40.428;-8.436;2023-02-14T11:50:26;101411.16;;;26.47;67.47
61318;BME280;47201;40.428;-8.436;2023-02-14T11:52:28;101406.31;;;26.37;68.14
61318;BME280;47201;40.428;-8.436;2023-02-14T11:54:33;101377.88;;;26.51;66.99
61318;BME280;47201;40.428;-8.436;2023-02-14T11:56:50;101407.50;;;25.32;69.60
61318;BME280;47201;40.428;-8.436;2023-02-14T11:58:57;101390.00;;;25.09;69.70
61318;BME280;47201;40.428;-8.436;2023-02-14T12:00:59;101385.03;;;25.01;69.97
61318;BME280;47201;40.428;-8.436;2023-02-14T12:03:02;101382.28;;;24.49;70.38
61318;BME280;47201;40.428;-8.436;2023-02-14T12:05:06;101372.91;;;24.03;71.36
61318;BME280;47201;40.428;-8.436;2023-02-14T12:11:22;101342.53;;;23.68;72.81
61318;BME280;47201;40.428;-8.436;2023-02-14T12:13:23;101342.28;;;23.34;73.54
61318;BME280;47201;40.428;-8.436;2023-02-14T12:17:47;101353.38;;;20.41;78.44
61318;BME280;47201;40.428;-8.436;2023-02-14T12:21:59;101330.00;;;18.68;82.20
61318;BME280;47201;40.428;-8.436;2023-02-14T12:26:14;101326.88;;;17.74;84.90
61318;BME280;47201;40.428;-8.436;2023-02-14T12:28:19;101319.50;;;17.49;86.09
61318;BME280;47201;40.428;-8.436;2023-02-14T12:30:23;101314.06;;;17.55;86.32
61318;BME280;47201;40.428;-8.436;2023-02-14T12:32:26;101289.91;;;17.72;86.37